首页
METAR-TAF:

METAR-TAF

机场 :

巴士拉国际机场

巴士拉, 伊拉克

纬度: 30-32-56N, 经度: 47-39-45E, 海拔: 1米

当前天气观测

该预报发布于20分钟前的03:00 UTC
风速6节,风向西南
温度 10°C
湿度 82%
气压 1017 hPa
能見度: 8000

METAR: ORMM 120300Z 22006KT 8000 NSC 10/07 Q1017 NOSIG

时间: 06:20 (03:20 UTC)

预报

该预报发布于5小时和20分钟前的22:00 UTC
预报有效从12日的 00点(UTC)到 12日的 24点(UTC)
风速6节,风向西
能見度: 8000
短暂存在
从 12日的 00点(UTC)到 12日的 05点(UTC)
风速3节,风向多变
能見度: 4000
短暂存在
从 12日的 10点(UTC)到 12日的 12点(UTC)
风速10节,风向东转东南

TAF: ORMM 112200Z 1200/1224 26006KT 8000 NSC TEMPO 1200/1205 VRB03KT 4000 BR/HZ TEMPO 1210/1212 12010KT

超过4000个机场的气象观测和天气预报(METAR&TAF报告)。

可查询的气象台以黄色和红色小点在地图上表示。

将鼠标移到小点上方,可查看气象台名称。

然后点击查看天气观测和预报。

如需切换地图:点击带黑十字的绿色按钮放大地图;点击带横线的绿色按钮缩小地图;或者点击绿色箭头查看邻近地区的地图。


METAR-TAF: